createdAt,value
2023-02-06T00:02:05.110Z,23.13
2023-02-06T00:07:06.733Z,22.80
2023-02-06T00:12:08.364Z,24.33
2023-02-06T00:17:09.957Z,17.63
2023-02-06T00:22:13.553Z,20.73
2023-02-06T00:27:15.147Z,17.73
2023-02-06T00:32:16.849Z,21.50
2023-02-06T00:37:18.529Z,19.23
2023-02-06T00:42:20.191Z,24.37
2023-02-06T00:47:21.827Z,19.00
2023-02-06T00:52:23.477Z,19.53
2023-02-06T00:57:25.126Z,20.40
2023-02-06T01:02:26.867Z,21.43
2023-02-06T01:07:28.599Z,18.93
2023-02-06T01:12:30.217Z,19.93
2023-02-06T01:17:33.302Z,18.20
2023-02-06T01:22:36.493Z,20.23
2023-02-06T01:27:38.590Z,17.10
2023-02-06T01:32:41.661Z,18.37
2023-02-06T01:37:43.324Z,13.67
2023-02-06T01:42:45.135Z,15.80
2023-02-06T01:47:48.840Z,21.13
2023-02-06T01:52:51.169Z,18.90
2023-02-06T01:57:52.900Z,16.47
2023-02-06T02:02:55.566Z,18.70
2023-02-06T02:08:02.964Z,17.50
2023-02-06T02:13:04.592Z,19.40
2023-02-06T02:18:30.603Z,12.67
2023-02-06T02:23:45.616Z,16.90
2023-02-06T02:29:09.121Z,16.27
2023-02-06T02:34:31.269Z,16.53
2023-02-06T02:39:44.569Z,10.97
2023-02-06T02:44:56.232Z,15.27
2023-02-06T02:50:00.925Z,12.40
2023-02-06T02:55:18.080Z,18.37
2023-02-06T03:00:23.031Z,15.63
2023-02-06T03:05:26.458Z,14.30
2023-02-06T03:10:53.220Z,14.03
2023-02-06T03:16:08.027Z,16.53
2023-02-06T03:21:15.313Z,15.03
2023-02-06T03:26:22.613Z,12.93
2023-02-06T03:31:31.068Z,17.90
2023-02-06T03:36:32.959Z,14.07
2023-02-06T03:41:37.231Z,13.63
2023-02-06T03:46:41.910Z,17.37
2023-02-06T03:51:47.850Z,17.83
2023-02-06T03:56:56.604Z,14.53
2023-02-06T04:02:02.624Z,18.80
2023-02-06T04:07:18.948Z,16.87
2023-02-06T04:12:21.892Z,13.97
2023-02-06T04:17:40.741Z,13.87
2023-02-06T04:22:45.424Z,13.83
2023-02-06T04:27:47.134Z,16.97
2023-02-06T04:32:48.727Z,20.23
2023-02-06T04:37:50.338Z,15.53
2023-02-06T04:42:51.930Z,19.30
2023-02-06T04:47:53.524Z,16.63
2023-02-06T04:52:55.135Z,20.90
2023-02-06T04:57:56.725Z,17.07
2023-02-06T05:02:58.373Z,19.33
2023-02-06T05:07:59.971Z,19.73
2023-02-06T05:13:01.568Z,14.00
2023-02-06T05:18:03.431Z,20.43
2023-02-06T05:23:05.094Z,23.40
2023-02-06T05:28:07.480Z,17.37
2023-02-06T05:33:09.302Z,18.07
2023-02-06T05:38:11.707Z,25.60
2023-02-06T05:43:13.386Z,23.10
2023-02-06T05:48:15.116Z,23.87
2023-02-06T05:53:17.734Z,20.10
2023-02-06T05:58:19.722Z,18.33
2023-02-06T06:03:21.382Z,22.13
2023-02-06T06:08:23.105Z,21.90
2023-02-06T06:13:24.755Z,21.23
2023-02-06T06:18:26.749Z,17.63
2023-02-06T06:23:28.332Z,21.80
2023-02-06T06:28:30.096Z,20.60
2023-02-06T06:33:31.855Z,18.50
2023-02-06T06:38:33.484Z,21.77
2023-02-06T06:43:35.347Z,17.67
2023-02-06T06:48:38.368Z,19.20
2023-02-06T06:53:40.338Z,20.67
2023-02-06T06:58:42.526Z,17.90
2023-02-06T07:03:44.368Z,19.17
2023-02-06T07:08:46.032Z,24.52
2023-02-06T07:13:47.628Z,21.53
2023-02-06T07:18:49.218Z,23.40
2023-02-06T07:23:50.829Z,21.27
2023-02-06T07:28:52.788Z,26.30
2023-02-06T07:33:54.413Z,21.87
2023-02-06T07:38:56.019Z,23.37
2023-02-06T07:43:57.602Z,22.77
2023-02-06T07:48:59.297Z,22.02
2023-02-06T07:54:00.948Z,23.03
2023-02-06T07:59:03.097Z,23.48
2023-02-06T08:04:04.943Z,31.73
2023-02-06T08:09:06.567Z,25.53
2023-02-06T08:14:08.246Z,30.17
2023-02-06T08:19:11.026Z,33.85
2023-02-06T08:24:13.286Z,27.63
2023-02-06T08:29:14.894Z,30.90
2023-02-06T08:34:16.623Z,32.97
2023-02-06T08:39:19.258Z,27.97
2023-02-06T08:44:21.362Z,29.70
2023-02-06T08:49:26.912Z,39.47
2023-02-06T08:54:28.557Z,31.73
2023-02-06T08:59:31.030Z,48.73
2023-02-06T09:04:34.624Z,41.75
2023-02-06T09:09:36.312Z,44.15
2023-02-06T09:14:38.507Z,44.33
2023-02-06T09:19:40.196Z,49.53
2023-02-06T09:24:41.866Z,58.90
2023-02-06T09:29:43.495Z,52.90
2023-02-06T09:34:45.146Z,43.50
2023-02-06T09:39:46.914Z,47.65
2023-02-06T09:45:03.032Z,62.90
2023-02-06T09:50:25.494Z,54.07
2023-02-06T09:55:40.618Z,43.57
2023-02-06T10:00:51.529Z,40.63
2023-02-06T10:06:19.329Z,38.87
2023-02-06T10:11:34.793Z,30.17
2023-02-06T10:16:51.765Z,29.00
2023-02-06T10:22:01.969Z,27.83
2023-02-06T10:27:06.318Z,32.30
2023-02-06T10:32:36.625Z,28.10
2023-02-06T10:38:08.288Z,30.58
2023-02-06T10:43:20.161Z,32.37
2023-02-06T10:48:28.710Z,41.25
2023-02-06T10:53:37.386Z,40.65
2023-02-06T10:58:57.626Z,49.30
2023-02-06T11:04:05.293Z,41.63
2023-02-06T11:09:06.979Z,44.40
2023-02-06T11:14:24.862Z,44.57
2023-02-06T11:19:38.433Z,44.90
2023-02-06T11:24:59.570Z,33.28
2023-02-06T11:30:21.335Z,28.08
2023-02-06T11:35:31.828Z,28.33
2023-02-06T11:40:33.582Z,33.57
2023-02-06T11:45:35.532Z,30.00
2023-02-06T11:50:38.232Z,30.17
2023-02-06T11:55:40.661Z,35.80
2023-02-06T12:01:04.882Z,32.43
2023-02-06T12:06:17.928Z,35.08
2023-02-06T12:11:36.163Z,23.27
2023-02-06T12:16:41.474Z,32.22
2023-02-06T12:22:02.518Z,33.10
2023-02-06T12:27:16.874Z,32.10
2023-02-06T12:32:28.470Z,26.83
2023-02-06T12:37:43.405Z,30.87
2023-02-06T12:42:57.382Z,24.95
2023-02-06T12:48:23.424Z,24.80
2023-02-06T12:53:35.376Z,27.15
2023-02-06T12:58:48.220Z,21.77
2023-02-06T13:03:55.245Z,24.50
2023-02-06T13:08:58.830Z,21.13
2023-02-06T13:14:23.811Z,21.23
2023-02-06T13:19:49.450Z,20.87
2023-02-06T13:24:51.461Z,21.45
2023-02-06T13:29:54.032Z,20.30
2023-02-06T13:35:05.546Z,18.58
2023-02-06T13:40:22.510Z,26.88
2023-02-06T13:45:33.251Z,24.23
2023-02-06T13:51:00.428Z,26.92
2023-02-06T13:56:19.955Z,25.05
2023-02-06T14:01:28.295Z,19.25
2023-02-06T14:06:43.443Z,19.20
2023-02-06T14:12:23.985Z,21.00
2023-02-06T14:17:46.434Z,20.88
2023-02-06T14:23:13.148Z,20.55
2023-02-06T14:28:40.522Z,16.60
2023-02-06T14:33:51.086Z,25.90
2023-02-06T14:39:08.306Z,20.20
2023-02-06T14:44:13.584Z,18.83
2023-02-06T14:49:33.591Z,17.53
2023-02-06T14:54:38.452Z,11.20
2023-02-06T14:59:50.217Z,11.37
2023-02-06T15:04:51.923Z,10.17
2023-02-06T15:09:59.788Z,11.10
2023-02-06T15:15:19.735Z,17.60
2023-02-06T15:20:21.373Z,17.17
2023-02-06T15:25:39.157Z,13.83
2023-02-06T15:30:41.085Z,14.30
2023-02-06T15:35:49.599Z,18.57
2023-02-06T15:41:04.368Z,18.63
2023-02-06T15:46:06.797Z,22.13
2023-02-06T15:51:08.365Z,20.80
2023-02-06T15:56:24.831Z,19.97
2023-02-06T16:01:30.450Z,19.42
2023-02-06T16:06:32.167Z,22.15
2023-02-06T16:11:51.109Z,23.50
2023-02-06T16:17:20.366Z,31.83
2023-02-06T16:22:33.926Z,31.83
2023-02-06T16:27:35.539Z,25.27
2023-02-06T16:32:37.184Z,33.40
2023-02-06T16:37:39.295Z,24.75
2023-02-06T16:42:41.575Z,34.77
2023-02-06T16:47:43.211Z,36.17
2023-02-06T16:52:53.355Z,28.73
2023-02-06T16:57:58.874Z,29.73
2023-02-06T17:03:00.512Z,31.20
2023-02-06T17:08:02.324Z,30.75
2023-02-06T17:13:03.957Z,33.60
2023-02-06T17:18:05.600Z,31.17
2023-02-06T17:23:07.557Z,32.30
2023-02-06T17:28:13.128Z,41.17
2023-02-06T17:33:14.830Z,39.27
2023-02-06T17:38:16.462Z,33.63
2023-02-06T17:43:18.256Z,39.53
2023-02-06T17:48:19.869Z,34.40
2023-02-06T17:53:21.562Z,36.73
2023-02-06T17:58:23.315Z,39.10
2023-02-06T18:03:25.296Z,38.83
2023-02-06T18:08:28.271Z,38.60
2023-02-06T18:13:29.914Z,42.80
2023-02-06T18:18:32.394Z,46.77
2023-02-06T18:23:34.474Z,39.37
2023-02-06T18:28:37.290Z,42.20
2023-02-06T18:33:38.915Z,42.10
2023-02-06T18:38:40.614Z,50.03
2023-02-06T18:43:42.220Z,51.10
2023-02-06T18:48:43.821Z,42.67
2023-02-06T18:53:45.444Z,40.92
2023-02-06T18:58:47.258Z,51.43
2023-02-06T19:03:49.919Z,53.43
2023-02-06T19:08:51.651Z,45.03
2023-02-06T19:13:53.315Z,45.80
2023-02-06T19:18:54.917Z,49.67
2023-02-06T19:23:59.640Z,48.33
2023-02-06T19:29:01.293Z,49.10
2023-02-06T19:34:02.992Z,57.33
2023-02-06T19:39:07.625Z,56.93
2023-02-06T19:44:12.617Z,52.23
2023-02-06T19:49:14.260Z,63.70
2023-02-06T19:54:16.059Z,56.30
2023-02-06T19:59:22.545Z,63.57
2023-02-06T20:04:26.950Z,63.57
2023-02-06T20:09:29.397Z,55.17
2023-02-06T20:14:31.613Z,52.20
2023-02-06T20:19:33.559Z,52.80
2023-02-06T20:24:35.175Z,56.13
2023-02-06T20:29:39.589Z,53.93
2023-02-06T20:34:41.264Z,51.07
2023-02-06T20:39:42.924Z,48.97
2023-02-06T20:44:44.616Z,51.13
2023-02-06T20:49:46.434Z,59.63
2023-02-06T20:54:48.078Z,49.10
2023-02-06T20:59:49.745Z,47.77
2023-02-06T21:04:52.395Z,49.70
2023-02-06T21:09:54.003Z,45.37
2023-02-06T21:14:55.772Z,58.23
2023-02-06T21:19:57.390Z,48.90
2023-02-06T21:24:59.928Z,56.13
2023-02-06T21:30:01.607Z,39.80
2023-02-06T21:35:03.813Z,40.47
2023-02-06T21:40:06.581Z,56.93
2023-02-06T21:45:08.840Z,49.40
2023-02-06T21:50:10.462Z,38.23
2023-02-06T21:55:12.389Z,39.27
2023-02-06T22:00:14.488Z,43.07
2023-02-06T22:05:16.877Z,35.63
2023-02-06T22:10:18.644Z,37.80
2023-02-06T22:15:20.267Z,42.87
2023-02-06T22:20:22.068Z,42.10
2023-02-06T22:25:23.776Z,35.80
2023-02-06T22:30:25.408Z,36.00
2023-02-06T22:35:27.044Z,34.97
2023-02-06T22:40:28.632Z,39.47
2023-02-06T22:45:30.326Z,46.07
2023-02-06T22:50:31.915Z,38.60
2023-02-06T22:56:14.162Z,35.33
2023-02-06T23:01:17.565Z,40.37
2023-02-06T23:06:20.053Z,41.70
2023-02-06T23:11:21.836Z,40.07
2023-02-06T23:16:24.494Z,43.70
2023-02-06T23:21:28.010Z,41.90
2023-02-06T23:26:30.227Z,40.83
2023-02-06T23:31:31.954Z,38.97
2023-02-06T23:36:33.988Z,32.00
2023-02-06T23:41:35.608Z,40.17
2023-02-06T23:46:39.201Z,42.50
2023-02-06T23:51:40.842Z,43.90
2023-02-06T23:56:42.522Z,44.40
